Time;durP1;ratioP1;P1;durP2;ratioP2;P2;SDS_P1;SDS_P2;PMS_P1;PMS_P2;Temp;Humidity;BMP_temperature;BMP_pressure;BME280_temperature;BME280_humidity;BME280_pressure;Samples;Min_cycle;Max_cycle;Signal;HPM_P1;HPM_P2
2022/03/26 00:00:16;;;;;;;81.10;39.97;;;7.40;99.90;;;;;;5034282;28;20399;-68
2022/03/26 00:02:43;;;;;;;81.63;40.33;;;7.30;99.90;;;;;;5034890;28;20429;-65
2022/03/26 00:05:09;;;;;;;77.33;36.90;;;7.30;99.90;;;;;;5035048;28;20398;-68
2022/03/26 00:07:35;;;;;;;84.13;41.17;;;7.30;99.90;;;;;;5034885;28;20908;-65
2022/03/26 00:10:02;;;;;;;77.00;38.60;;;7.30;99.90;;;;;;5034311;28;20394;-66
2022/03/26 00:12:28;;;;;;;74.63;36.97;;;7.30;99.90;;;;;;5034696;28;20268;-68
2022/03/26 00:14:54;;;;;;;84.87;42.10;;;7.30;99.90;;;;;;5035027;28;20873;-64
2022/03/26 00:17:19;;;;;;;69.87;36.47;;;7.20;99.90;;;;;;5034757;28;20577;-68
2022/03/26 00:19:45;;;;;;;78.20;39.20;;;7.20;99.90;;;;;;5034223;28;20302;-65
2022/03/26 00:22:10;;;;;;;72.20;36.57;;;7.20;99.90;;;;;;5034487;28;20556;-70
2022/03/26 00:24:36;;;;;;;89.67;39.07;;;7.00;99.90;;;;;;5034611;28;20182;-68
2022/03/26 00:27:02;;;;;;;72.97;38.40;;;7.00;99.90;;;;;;5034697;28;20165;-62
2022/03/26 00:29:28;;;;;;;84.37;39.90;;;6.90;99.90;;;;;;5033994;28;20486;-68
2022/03/26 00:31:54;;;;;;;77.33;38.20;;;6.90;99.90;;;;;;5033650;28;20484;-64
2022/03/26 00:34:19;;;;;;;83.40;38.60;;;6.90;99.90;;;;;;5034377;28;20510;-67
2022/03/26 00:36:45;;;;;;;71.40;35.13;;;6.90;99.90;;;;;;5034260;28;20202;-67
2022/03/26 00:39:11;;;;;;;71.90;35.60;;;6.90;99.90;;;;;;5033953;28;20159;-62
2022/03/26 00:41:37;;;;;;;82.73;41.77;;;6.80;99.90;;;;;;5034254;28;20667;-66
2022/03/26 00:44:02;;;;;;;63.73;36.83;;;6.80;99.90;;;;;;5034272;28;20168;-62
2022/03/26 00:46:28;;;;;;;77.20;35.33;;;6.80;99.90;;;;;;5034033;28;20174;-63
2022/03/26 00:48:56;;;;;;;91.97;38.60;;;6.80;99.90;;;;;;5033686;28;20398;-63
2022/03/26 00:51:22;;;;;;;80.43;36.17;;;6.80;99.90;;;;;;5032896;28;20575;-66
2022/03/26 00:53:48;;;;;;;73.60;37.23;;;6.80;1.00;;;;;;5034265;28;20494;-62
2022/03/26 00:56:14;;;;;;;86.10;37.07;;;6.80;1.00;;;;;;5034107;28;20398;-66
2022/03/26 00:58:40;;;;;;;71.63;37.53;;;6.80;1.00;;;;;;5033282;28;20514;-63
2022/03/26 01:01:10;;;;;;;66.10;35.67;;;6.80;1.00;;;;;;5033931;28;20448;-62
2022/03/26 01:03:36;;;;;;;74.30;34.93;;;6.80;1.00;;;;;;5033967;28;20756;-63
2022/03/26 01:06:03;;;;;;;64.30;32.27;;;6.70;1.00;;;;;;5033870;28;20426;-62
2022/03/26 01:08:29;;;;;;;77.20;35.00;;;6.80;1.00;;;;;;5033347;28;20167;-67
2022/03/26 01:10:54;;;;;;;73.77;34.97;;;6.70;1.00;;;;;;5033824;28;20432;-62
2022/03/26 01:13:21;;;;;;;73.73;35.60;;;6.70;1.00;;;;;;5033881;28;20178;-66
2022/03/26 01:15:47;;;;;;;63.67;33.70;;;6.70;1.00;;;;;;5033644;28;20251;-66
2022/03/26 01:18:12;;;;;;;68.37;32.60;;;6.70;1.00;;;;;;5033674;28;20537;-63
2022/03/26 01:20:38;;;;;;;69.10;33.80;;;6.80;1.00;;;;;;5032932;28;20168;-63
2022/03/26 01:23:04;;;;;;;81.80;34.97;;;6.80;1.00;;;;;;5033525;28;20737;-66
2022/03/26 01:25:29;;;;;;;71.37;34.60;;;6.80;1.00;;;;;;5033710;28;20156;-63
2022/03/26 01:27:55;;;;;;;69.07;32.20;;;6.80;1.00;;;;;;5033648;28;20163;-63
2022/03/26 01:30:21;;;;;;;65.07;32.43;;;6.80;1.00;;;;;;5032845;28;20202;-67
2022/03/26 01:32:47;;;;;;;69.07;36.50;;;6.80;1.00;;;;;;5032371;28;20567;-65
2022/03/26 01:35:13;;;;;;;65.77;32.70;;;6.80;1.00;;;;;;5033423;28;20168;-62
2022/03/26 01:37:38;;;;;;;68.50;35.87;;;6.80;1.00;;;;;;5033605;28;20515;-63
2022/03/26 01:40:05;;;;;;;63.00;32.80;;;6.80;1.00;;;;;;5031523;28;20402;-66
2022/03/26 01:42:31;;;;;;;61.17;29.70;;;6.80;1.00;;;;;;5032208;28;20198;-63
2022/03/26 01:44:57;;;;;;;71.30;33.90;;;6.90;1.00;;;;;;5033100;28;20415;-63
2022/03/26 01:47:23;;;;;;;64.47;34.17;;;6.80;1.00;;;;;;5033519;28;20206;-65
2022/03/26 01:49:50;;;;;;;67.80;33.10;;;6.80;1.00;;;;;;5032858;28;20481;-65
2022/03/26 01:52:16;;;;;;;62.57;30.90;;;6.80;1.00;;;;;;5033276;28;20195;-67
2022/03/26 01:54:43;;;;;;;65.53;34.43;;;6.80;1.00;;;;;;5033390;28;20740;-67
2022/03/26 01:57:10;;;;;;;61.50;33.17;;;6.80;1.00;;;;;;5033228;28;20830;-69
2022/03/26 01:59:40;;;;;;;62.10;32.00;;;6.80;1.00;;;;;;5032644;28;20398;-64
2022/03/26 02:02:06;;;;;;;60.70;30.43;;;6.80;1.00;;;;;;5031863;28;20432;-67
2022/03/26 02:04:35;;;;;;;64.20;31.37;;;6.80;1.00;;;;;;5033381;28;20953;-67
2022/03/26 02:07:04;;;;;;;56.53;29.13;;;6.80;1.00;;;;;;5033143;28;20438;-62
2022/03/26 02:09:35;;;;;;;59.70;30.40;;;6.80;1.00;;;;;;5032500;28;20434;-64
2022/03/26 02:12:20;;;;;;;58.07;32.57;;;6.70;1.00;;;;;;5033162;28;20426;-64
2022/03/26 02:14:45;;;;;;;58.73;32.73;;;6.70;1.00;;;;;;5033201;28;20998;-64
2022/03/26 02:17:11;;;;;;;58.90;30.90;;;6.60;1.00;;;;;;5032924;28;20546;-65
2022/03/26 02:19:36;;;;;;;56.93;29.47;;;6.70;1.00;;;;;;5032620;28;20179;-68
2022/03/26 02:22:02;;;;;;;62.87;32.17;;;6.60;1.00;;;;;;5033052;28;20195;-68
2022/03/26 02:24:28;;;;;;;55.67;28.90;;;6.60;1.00;;;;;;5033016;28;20171;-67
2022/03/26 02:26:54;;;;;;;68.50;32.97;;;6.60;1.00;;;;;;5033028;28;20168;-64
2022/03/26 02:29:20;;;;;;;66.30;31.57;;;6.60;1.00;;;;;;5032089;28;20175;-67
2022/03/26 02:31:46;;;;;;;70.13;32.93;;;6.60;1.00;;;;;;5033101;28;20857;-68
2022/03/26 02:34:12;;;;;;;68.50;32.47;;;6.60;1.00;;;;;;5033044;28;20247;-65
2022/03/26 02:36:37;;;;;;;59.33;31.90;;;6.60;1.00;;;;;;5032877;28;20282;-67
2022/03/26 02:39:04;;;;;;;57.67;30.60;;;6.60;1.00;;;;;;5032135;28;20187;-68
2022/03/26 02:41:31;;;;;;;62.17;31.27;;;6.60;1.00;;;;;;5031979;28;20198;-68
2022/03/26 02:43:56;;;;;;;58.63;33.57;;;6.70;1.00;;;;;;5033156;28;20449;-67
2022/03/26 02:46:22;;;;;;;60.03;29.40;;;6.60;1.00;;;;;;5032760;28;20798;-68
2022/03/26 02:48:48;;;;;;;67.80;31.60;;;6.60;1.00;;;;;;5032159;28;20293;-68
2022/03/26 02:51:14;;;;;;;63.23;33.43;;;6.60;1.00;;;;;;5032595;28;20164;-64
2022/03/26 02:53:39;;;;;;;68.23;33.50;;;6.50;1.00;;;;;;5032598;28;20625;-68
2022/03/26 02:56:05;;;;;;;65.03;32.77;;;6.50;1.00;;;;;;5035951;28;20617;-65
2022/03/26 02:58:30;;;;;;;64.57;32.20;;;6.60;1.00;;;;;;5035660;28;20214;-68
2022/03/26 03:00:57;;;;;;;59.30;32.20;;;6.70;1.00;;;;;;5036362;28;20672;-65
2022/03/26 03:03:23;;;;;;;72.17;34.83;;;6.70;1.00;;;;;;5036194;28;20218;-67
2022/03/26 03:05:49;;;;;;;64.90;31.70;;;6.70;1.00;;;;;;5036133;28;20460;-68
2022/03/26 03:08:15;;;;;;;54.63;31.50;;;6.70;1.00;;;;;;5036191;28;20179;-64
2022/03/26 03:10:44;;;;;;;55.50;29.47;;;6.70;1.00;;;;;;5035497;28;20190;-68
2022/03/26 03:13:10;;;;;;;66.77;31.90;;;6.70;1.00;;;;;;5036092;28;20887;-68
2022/03/26 03:15:37;;;;;;;59.47;31.90;;;6.70;1.00;;;;;;5035933;28;20398;-67
2022/03/26 03:18:03;;;;;;;61.13;31.97;;;6.70;1.00;;;;;;5036039;28;20442;-64
2022/03/26 03:20:29;;;;;;;62.50;34.50;;;6.70;1.00;;;;;;5033655;28;20815;-68
2022/03/26 03:22:56;;;;;;;61.70;32.87;;;6.60;1.00;;;;;;5035749;28;20418;-67
2022/03/26 03:25:25;;;;;;;64.53;30.90;;;6.70;1.00;;;;;;5035848;28;20426;-65
2022/03/26 03:27:51;;;;;;;63.33;33.60;;;6.70;1.00;;;;;;5035701;28;20452;-65
2022/03/26 03:30:17;;;;;;;56.30;29.70;;;6.70;1.00;;;;;;5034102;28;20422;-64
2022/03/26 03:32:42;;;;;;;73.00;31.30;;;6.70;1.00;;;;;;5035771;28;20552;-65
2022/03/26 03:35:08;;;;;;;66.23;31.13;;;6.70;1.00;;;;;;5035552;28;20164;-62
2022/03/26 03:37:38;;;;;;;64.20;29.80;;;6.70;1.00;;;;;;5035513;28;20241;-67
2022/03/26 03:40:05;;;;;;;60.30;30.40;;;6.70;1.00;;;;;;5033449;28;20655;-65
2022/03/26 03:42:31;;;;;;;79.47;33.70;;;6.70;1.00;;;;;;5035474;28;20425;-64
2022/03/26 03:44:57;;;;;;;57.17;29.40;;;6.60;1.00;;;;;;5035621;28;20407;-68
2022/03/26 03:47:23;;;;;;;61.23;32.43;;;6.60;1.00;;;;;;5035381;28;20221;-65
2022/03/26 03:49:48;;;;;;;71.83;30.90;;;6.60;1.00;;;;;;5034538;28;20167;-65
2022/03/26 03:52:14;;;;;;;59.67;32.60;;;6.50;1.00;;;;;;5035172;28;20183;-65
2022/03/26 03:54:39;;;;;;;75.20;33.73;;;6.50;1.00;;;;;;5035454;28;20246;-64
2022/03/26 03:57:05;;;;;;;63.10;31.73;;;6.50;1.00;;;;;;5035237;28;20218;-64
2022/03/26 03:59:31;;;;;;;69.10;32.60;;;6.50;1.00;;;;;;5034535;28;20533;-66
2022/03/26 04:01:56;;;;;;;70.60;31.00;;;6.50;1.00;;;;;;5035019;28;20194;-67
2022/03/26 04:04:22;;;;;;;62.90;30.17;;;6.50;1.00;;;;;;5033895;28;20182;-67
2022/03/26 04:06:48;;;;;;;77.20;32.90;;;6.50;1.00;;;;;;5033810;28;20191;-64
2022/03/26 04:09:13;;;;;;;72.30;31.80;;;6.50;1.00;;;;;;5034390;28;20168;-67
2022/03/26 04:11:39;;;;;;;58.90;29.47;;;6.50;1.00;;;;;;5034898;28;20184;-63
2022/03/26 04:14:06;;;;;;;69.37;30.30;;;6.50;1.00;;;;;;5034732;28;20171;-64
2022/03/26 04:16:31;;;;;;;74.60;32.90;;;6.50;1.00;;;;;;5034807;28;20767;-64
2022/03/26 04:18:58;;;;;;;57.47;30.90;;;6.50;1.00;;;;;;5034191;28;20395;-64
2022/03/26 04:21:24;;;;;;;62.93;32.17;;;6.50;1.00;;;;;;5034606;28;20175;-67
2022/03/26 04:23:50;;;;;;;76.97;31.90;;;6.50;1.00;;;;;;5034746;28;20411;-68
2022/03/26 04:26:15;;;;;;;66.23;31.47;;;6.50;1.00;;;;;;5034590;28;20413;-64
2022/03/26 04:28:41;;;;;;;55.63;30.53;;;6.40;1.00;;;;;;5034214;28;20631;-68
2022/03/26 04:31:08;;;;;;;63.63;31.20;;;6.40;1.00;;;;;;5034672;28;20176;-64
2022/03/26 04:33:34;;;;;;;66.03;32.27;;;6.40;1.00;;;;;;5034461;28;20174;-67
2022/03/26 04:35:59;;;;;;;65.40;32.63;;;6.40;1.00;;;;;;5034458;28;20823;-68
2022/03/26 04:38:25;;;;;;;70.80;32.17;;;6.30;1.00;;;;;;5032854;28;20290;-68
2022/03/26 04:40:50;;;;;;;59.67;30.97;;;6.30;1.00;;;;;;5033780;28;20199;-64
2022/03/26 04:43:18;;;;;;;61.40;30.30;;;6.30;1.00;;;;;;5034251;28;20188;-64
2022/03/26 04:45:44;;;;;;;65.07;30.57;;;6.30;1.00;;;;;;5034348;28;20176;-67
2022/03/26 04:48:10;;;;;;;55.13;30.33;;;6.30;1.00;;;;;;5034086;28;20407;-68
2022/03/26 04:50:35;;;;;;;61.37;32.23;;;6.40;1.00;;;;;;5033470;28;20501;-64
2022/03/26 04:53:01;;;;;;;67.03;31.40;;;6.30;1.00;;;;;;5034391;28;20250;-68
2022/03/26 04:55:27;;;;;;;75.37;32.83;;;6.20;1.00;;;;;;5034159;28;20254;-67
2022/03/26 04:57:52;;;;;;;72.03;33.00;;;6.30;1.00;;;;;;5034175;28;20202;-64
2022/03/26 05:00:19;;;;;;;62.13;31.10;;;6.20;1.00;;;;;;5033472;28;20195;-65
2022/03/26 05:02:45;;;;;;;63.50;31.33;;;6.30;1.00;;;;;;5033869;28;20184;-66
2022/03/26 05:05:13;;;;;;;58.50;28.80;;;6.20;1.00;;;;;;5034128;28;20453;-64
2022/03/26 05:07:45;;;;;;;66.50;30.97;;;6.20;1.00;;;;;;5033850;28;20433;-67
2022/03/26 05:10:18;;;;;;;65.40;29.70;;;6.30;1.00;;;;;;5033310;28;20390;-67
2022/03/26 05:12:45;;;;;;;64.90;27.97;;;6.30;1.00;;;;;;5033733;28;20504;-67
2022/03/26 05:15:12;;;;;;;67.13;31.73;;;6.30;2.30;;;;;;5033802;28;20398;-66
2022/03/26 05:17:38;;;;;;;53.47;28.00;;;6.30;21.40;;;;;;5033553;28;20537;-67
2022/03/26 05:20:05;;;;;;;59.23;30.47;;;6.40;29.60;;;;;;5033144;28;20868;-67
2022/03/26 05:22:32;;;;;;;53.30;29.10;;;6.40;29.70;;;;;;5033610;28;20449;-66
2022/03/26 05:24:58;;;;;;;61.33;29.40;;;6.40;42.40;;;;;;5032379;28;20783;-64
2022/03/26 05:27:24;;;;;;;69.13;30.50;;;6.50;49.20;;;;;;5033669;28;20501;-67
2022/03/26 05:29:49;;;;;;;59.20;30.83;;;6.50;56.10;;;;;;5032936;28;20416;-64
2022/03/26 05:32:16;;;;;;;53.20;29.17;;;6.50;63.00;;;;;;5033546;28;20927;-67
2022/03/26 05:34:42;;;;;;;61.03;29.83;;;6.60;71.80;;;;;;5033191;28;20179;-67
2022/03/26 05:37:08;;;;;;;58.63;30.40;;;6.60;78.60;;;;;;5033338;28;20449;-68
2022/03/26 05:39:34;;;;;;;62.57;27.70;;;6.60;78.20;;;;;;5031487;28;20398;-67
2022/03/26 05:42:00;;;;;;;54.23;26.73;;;6.60;78.50;;;;;;5033348;28;20192;-64
2022/03/26 05:44:26;;;;;;;59.83;25.97;;;6.70;78.70;;;;;;5033291;28;20168;-67
2022/03/26 05:46:51;;;;;;;62.77;29.70;;;6.80;89.60;;;;;;5033241;28;20413;-64
2022/03/26 05:49:17;;;;;;;49.70;26.03;;;6.90;90.40;;;;;;5032838;28;20410;-67
2022/03/26 05:51:44;;;;;;;51.77;26.77;;;7.00;92.10;;;;;;5033350;28;20187;-64
2022/03/26 05:54:09;;;;;;;58.87;30.10;;;7.10;92.70;;;;;;5033255;28;20236;-64
2022/03/26 05:56:36;;;;;;;47.37;24.47;;;7.20;92.00;;;;;;5033196;28;20403;-65
2022/03/26 05:59:06;;;;;;;49.50;25.50;;;7.30;92.50;;;;;;5032442;28;20411;-65
2022/03/26 06:01:32;;;;;;;56.40;27.00;;;7.40;92.90;;;;;;5033305;28;20400;-64
2022/03/26 06:03:58;;;;;;;44.37;21.80;;;7.40;91.70;;;;;;5033325;28;20391;-67
2022/03/26 06:06:23;;;;;;;38.13;20.27;;;7.50;90.00;;;;;;5033024;28;20426;-64
2022/03/26 06:08:49;;;;;;;46.33;22.13;;;7.50;88.80;;;;;;5032544;28;20628;-68
2022/03/26 06:11:15;;;;;;;45.77;22.07;;;7.60;86.90;;;;;;5033133;28;20191;-64
2022/03/26 06:13:40;;;;;;;43.53;21.57;;;7.60;86.90;;;;;;5033214;28;20278;-67
2022/03/26 06:16:06;;;;;;;41.90;21.63;;;7.70;85.30;;;;;;5033034;28;20168;-64
2022/03/26 06:18:32;;;;;;;44.70;23.50;;;7.70;89.40;;;;;;5032467;28;20268;-65
2022/03/26 06:21:00;;;;;;;46.47;19.37;;;7.80;89.40;;;;;;5032968;28;20294;-64
2022/03/26 06:23:26;;;;;;;35.07;23.13;;;7.90;90.20;;;;;;5033008;28;20171;-64
2022/03/26 06:25:52;;;;;;;50.10;21.90;;;7.90;89.50;;;;;;5033062;28;20444;-67
2022/03/26 06:28:19;;;;;;;35.67;20.43;;;8.00;89.40;;;;;;5033155;28;20416;-64
2022/03/26 06:30:46;;;;;;;36.77;20.30;;;8.10;91.30;;;;;;5035132;28;20448;-64
2022/03/26 06:33:13;;;;;;;44.83;20.70;;;8.10;86.70;;;;;;5036621;28;20873;-67
2022/03/26 06:35:39;;;;;;;35.30;20.30;;;8.10;85.70;;;;;;5036935;28;20405;-68
2022/03/26 06:38:04;;;;;;;36.60;18.50;;;8.10;87.10;;;;;;5036758;28;20853;-68
2022/03/26 06:40:30;;;;;;;40.43;19.90;;;8.20;91.80;;;;;;5035957;28;20593;-67
2022/03/26 06:42:56;;;;;;;39.20;16.10;;;8.30;92.30;;;;;;5036465;28;20186;-68
2022/03/26 06:45:22;;;;;;;31.83;17.60;;;8.30;91.40;;;;;;5036371;28;20176;-66
2022/03/26 06:47:47;;;;;;;36.87;20.93;;;8.30;92.40;;;;;;5036733;28;20167;-64
2022/03/26 06:50:13;;;;;;;40.53;17.53;;;8.30;94.40;;;;;;5035853;28;20169;-67
2022/03/26 06:52:38;;;;;;;30.87;17.63;;;8.40;96.50;;;;;;5036359;28;20211;-67
2022/03/26 06:55:05;;;;;;;31.73;18.80;;;8.50;97.20;;;;;;5036348;28;20171;-68
2022/03/26 06:57:31;;;;;;;37.97;19.43;;;8.50;98.50;;;;;;5036115;28;20198;-64
2022/03/26 06:59:56;;;;;;;34.07;17.60;;;8.60;99.00;;;;;;5035736;28;20396;-64
2022/03/26 07:02:22;;;;;;;29.37;16.83;;;8.60;97.90;;;;;;5035146;28;20296;-67
2022/03/26 07:04:48;;;;;;;33.73;17.60;;;8.70;97.50;;;;;;5036344;28;20168;-68
2022/03/26 07:07:14;;;;;;;31.60;16.10;;;8.70;97.50;;;;;;5034840;28;20193;-69
2022/03/26 07:09:40;;;;;;;30.13;17.43;;;8.70;97.70;;;;;;5035445;28;20219;-67
2022/03/26 07:12:06;;;;;;;38.17;18.90;;;8.80;97.90;;;;;;5035923;28;20423;-69
2022/03/26 07:14:31;;;;;;;27.10;16.03;;;8.90;94.90;;;;;;5036114;28;20802;-70
2022/03/26 07:16:57;;;;;;;38.57;17.57;;;9.00;93.20;;;;;;5034915;28;20460;-66
2022/03/26 07:19:22;;;;;;;27.40;17.27;;;9.00;89.60;;;;;;5035180;28;20222;-70
2022/03/26 07:21:48;;;;;;;27.57;16.43;;;9.00;80.40;;;;;;5035721;28;20190;-70
2022/03/26 07:24:14;;;;;;;28.57;17.00;;;8.90;80.40;;;;;;5035892;28;20168;-67
2022/03/26 07:26:39;;;;;;;31.03;17.37;;;9.10;80.50;;;;;;5034482;28;20209;-70
2022/03/26 07:29:05;;;;;;;26.97;15.57;;;9.10;80.50;;;;;;5035039;28;20176;-64
2022/03/26 07:31:31;;;;;;;37.20;17.10;;;9.10;80.50;;;;;;5035612;28;20582;-65
2022/03/26 07:33:57;;;;;;;22.80;15.00;;;9.20;80.60;;;;;;5035689;28;20498;-64
2022/03/26 07:36:22;;;;;;;32.50;17.20;;;9.20;80.50;;;;;;5035466;28;20894;-67
2022/03/26 07:38:48;;;;;;;27.27;15.77;;;9.30;76.50;;;;;;5033592;28;20576;-65
2022/03/26 07:41:13;;;;;;;27.10;15.83;;;9.40;74.30;;;;;;5035227;28;20172;-64
2022/03/26 07:43:39;;;;;;;28.70;14.83;;;9.50;67.60;;;;;;5035406;28;20171;-67
2022/03/26 07:46:05;;;;;;;32.80;16.10;;;9.50;61.80;;;;;;5035271;28;20217;-67
2022/03/26 07:48:30;;;;;;;29.93;15.23;;;9.50;51.40;;;;;;5034845;28;20166;-64
2022/03/26 07:50:56;;;;;;;24.40;14.57;;;9.40;51.30;;;;;;5035298;28;20166;-69
2022/03/26 07:53:27;;;;;;;29.93;14.47;;;9.40;54.20;;;;;;5035200;28;20177;-68
2022/03/26 07:55:53;;;;;;;25.27;14.87;;;9.50;66.90;;;;;;5035090;28;20158;-64
2022/03/26 07:58:19;;;;;;;27.10;15.13;;;9.60;65.90;;;;;;5035129;28;20448;-64
2022/03/26 08:00:44;;;;;;;25.23;15.20;;;9.70;70.00;;;;;;5034558;28;20159;-68
2022/03/26 08:03:13;;;;;;;23.93;15.10;;;9.70;66.50;;;;;;5035139;28;20199;-67
2022/03/26 08:05:38;;;;;;;29.40;15.37;;;9.80;67.60;;;;;;5035143;28;20163;-69
2022/03/26 08:08:04;;;;;;;27.53;14.57;;;9.80;60.10;;;;;;5035046;28;20568;-64
2022/03/26 08:10:30;;;;;;;25.30;14.90;;;9.90;57.40;;;;;;5034387;28;20199;-65
2022/03/26 08:12:55;;;;;;;33.57;13.70;;;10.00;59.30;;;;;;5033776;28;20404;-64
2022/03/26 08:15:21;;;;;;;24.93;13.20;;;10.00;55.10;;;;;;5034957;28;20182;-64
2022/03/26 08:17:46;;;;;;;20.60;14.10;;;10.10;55.40;;;;;;5034936;28;20282;-65
2022/03/26 08:20:12;;;;;;;23.67;13.00;;;10.10;50.60;;;;;;5034073;28;20159;-67
2022/03/26 08:22:41;;;;;;;23.27;13.70;;;10.10;45.70;;;;;;5034649;28;20279;-65
2022/03/26 08:25:09;;;;;;;19.67;13.23;;;10.10;43.10;;;;;;5034924;28;20222;-64
2022/03/26 08:27:38;;;;;;;23.13;12.97;;;10.20;47.90;;;;;;5034737;28;20391;-64
2022/03/26 08:30:07;;;;;;;22.67;13.80;;;10.20;39.90;;;;;;5033897;28;20387;-66
2022/03/26 08:32:33;;;;;;;23.87;11.90;;;10.20;32.20;;;;;;5034633;28;20406;-68
2022/03/26 08:34:58;;;;;;;19.97;13.40;;;10.30;32.30;;;;;;5034636;28;20492;-64
2022/03/26 08:37:24;;;;;;;16.00;11.10;;;10.30;39.40;;;;;;5034433;28;20191;-67
2022/03/26 08:39:50;;;;;;;16.20;10.30;;;10.40;41.60;;;;;;5033707;28;20633;-65
2022/03/26 08:42:15;;;;;;;19.93;10.83;;;10.40;36.20;;;;;;5034110;28;20682;-64
2022/03/26 08:44:41;;;;;;;21.20;12.23;;;10.70;40.40;;;;;;5034405;28;20179;-67
2022/03/26 08:47:07;;;;;;;19.53;9.53;;;10.80;32.70;;;;;;5034252;28;20179;-64
2022/03/26 08:49:34;;;;;;;20.07;9.47;;;10.90;32.80;;;;;;5033653;28;20164;-64
2022/03/26 08:51:59;;;;;;;9.60;7.47;;;10.90;23.70;;;;;;5033439;28;20194;-66
2022/03/26 08:54:25;;;;;;;11.50;6.50;;;11.00;21.90;;;;;;5032631;28;20418;-64
2022/03/26 08:56:51;;;;;;;11.20;7.30;;;11.00;23.30;;;;;;5034010;28;20198;-67
2022/03/26 08:59:16;;;;;;;10.27;6.57;;;11.10;23.80;;;;;;5033447;28;20164;-67
2022/03/26 09:01:42;;;;;;;7.80;5.23;;;11.20;21.30;;;;;;5033884;28;20183;-67
2022/03/26 09:04:11;;;;;;;8.80;5.13;;;11.30;6.70;;;;;;5033885;28;20245;-64
2022/03/26 09:06:37;;;;;;;6.23;5.37;;;11.20;1.20;;;;;;5033775;28;20664;-68
2022/03/26 09:09:04;;;;;;;9.40;6.20;;;11.20;1.00;;;;;;5033235;28;20376;-67
2022/03/26 09:11:30;;;;;;;4.87;4.17;;;11.20;1.00;;;;;;5033895;28;20480;-64
2022/03/26 09:13:56;;;;;;;5.80;3.80;;;11.20;1.00;;;;;;5033819;28;20456;-67
2022/03/26 09:16:22;;;;;;;4.67;4.37;;;11.30;1.00;;;;;;5033760;28;20199;-65
2022/03/26 09:18:47;;;;;;;9.20;4.10;;;11.30;1.00;;;;;;5033158;28;20679;-67
2022/03/26 09:21:13;;;;;;;5.60;4.03;;;11.40;1.00;;;;;;5033783;28;20564;-67
2022/03/26 09:23:39;;;;;;;4.23;3.70;;;11.60;1.00;;;;;;5033899;28;20213;-64
2022/03/26 09:26:04;;;;;;;4.77;4.27;;;11.60;1.00;;;;;;5032559;28;20198;-64
2022/03/26 09:28:30;;;;;;;6.53;4.17;;;11.70;1.00;;;;;;5031952;28;20176;-65
2022/03/26 09:30:56;;;;;;;4.57;3.93;;;11.80;1.00;;;;;;5033559;28;20171;-65
2022/03/26 09:33:22;;;;;;;4.50;3.63;;;11.60;1.00;;;;;;5032265;28;20422;-64
2022/03/26 09:35:48;;;;;;;4.93;3.80;;;11.40;1.00;;;;;;5033530;28;20175;-63
2022/03/26 09:38:13;;;;;;;4.60;4.20;;;11.40;1.00;;;;;;5033369;28;20199;-64
2022/03/26 09:40:42;;;;;;;4.60;3.20;;;11.40;1.00;;;;;;5032646;28;20877;-64
2022/03/26 09:43:09;;;;;;;4.93;3.63;;;11.50;1.00;;;;;;5033335;28;20278;-67
2022/03/26 09:45:35;;;;;;;6.83;5.87;;;11.60;1.00;;;;;;5032390;28;20385;-64
2022/03/26 09:48:00;;;;;;;8.17;5.40;;;11.90;1.00;;;;;;5033340;28;20377;-68
2022/03/26 09:50:26;;;;;;;19.73;11.50;;;12.20;1.00;;;;;;5032669;28;20254;-69
2022/03/26 09:52:52;;;;;;;8.50;4.87;;;12.40;1.00;;;;;;5033130;28;20183;-64
2022/03/26 09:55:21;;;;;;;3.57;3.23;;;12.70;1.00;;;;;;5033592;28;20552;-68
2022/03/26 09:57:47;;;;;;;3.10;2.90;;;12.80;1.00;;;;;;5033202;28;20215;-63
2022/03/26 10:00:14;;;;;;;3.83;3.27;;;13.20;1.00;;;;;;5032575;28;20405;-68
2022/03/26 10:02:40;;;;;;;3.70;3.40;;;13.30;1.00;;;;;;5032910;28;20429;-64
2022/03/26 10:05:08;;;;;;;4.77;4.20;;;13.70;1.00;;;;;;5033691;28;20742;-64
2022/03/26 10:07:34;;;;;;;3.40;3.20;;;14.40;1.00;;;;;;5037263;28;20179;-64
2022/03/26 10:10:03;;;;;;;4.20;3.20;;;15.00;1.00;;;;;;5036700;28;20409;-68
2022/03/26 10:12:29;;;;;;;3.70;2.60;;;15.20;1.00;;;;;;5037288;28;20284;-64
2022/03/26 10:15:00;;;;;;;3.90;3.50;;;15.00;1.00;;;;;;5037133;28;20605;-68
2022/03/26 10:17:28;;;;;;;3.00;2.80;;;14.80;99.90;;;;;;5037032;28;20603;-64
2022/03/26 10:20:12;;;;;;;3.50;2.70;;;14.80;99.90;;;;;;5036450;28;20398;-67
2022/03/26 10:22:41;;;;;;;2.80;2.60;;;15.10;99.90;;;;;;5036964;28;20437;-66
2022/03/26 10:25:31;;;;;;;2.60;2.40;;;15.10;99.90;;;;;;5036899;28;20426;-68
2022/03/26 10:27:57;;;;;;;2.90;2.60;;;14.90;99.90;;;;;;5036942;28;20406;-66
2022/03/26 10:33:30;;;;;;;3.33;2.47;;;14.40;99.90;;;;;;5037010;28;20423;-64
2022/03/26 10:36:00;;;;;;;5.87;3.80;;;14.30;99.90;;;;;;5036712;28;20458;-66
2022/03/26 10:38:29;;;;;;;3.20;3.00;;;14.20;99.90;;;;;;5036622;28;20507;-67
2022/03/26 10:41:06;;;;;;;3.57;3.27;;;14.00;99.90;;;;;;5036621;28;20394;-66
2022/03/26 10:43:32;;;;;;;4.83;4.43;;;13.80;99.90;;;;;;5036619;28;20379;-63
2022/03/26 10:46:00;;;;;;;2.63;2.43;;;13.70;99.90;;;;;;5036702;28;20725;-63
2022/03/26 10:48:32;;;;;;;3.10;2.87;;;13.80;99.90;;;;;;5036390;28;20163;-64
2022/03/26 10:51:13;;;;;;;2.67;2.47;;;13.80;99.90;;;;;;5036292;28;20369;-64
2022/03/26 10:53:41;;;;;;;2.90;2.53;;;14.30;99.90;;;;;;5036689;28;20404;-67
2022/03/26 10:56:12;;;;;;;2.97;2.77;;;14.60;99.90;;;;;;5035020;28;20874;-67
2022/03/26 10:58:39;;;;;;;4.87;3.27;;;15.10;99.90;;;;;;5035664;28;20462;-68
2022/03/26 11:01:05;;;;;;;5.37;3.07;;;15.40;99.90;;;;;;5036020;28;20412;-64
2022/03/26 11:03:32;;;;;;;3.10;2.53;;;15.20;99.90;;;;;;5036155;28;20961;-64
2022/03/26 11:05:58;;;;;;;2.50;2.30;;;14.60;99.90;;;;;;5036177;28;20886;-63
2022/03/26 11:08:29;;;;;;;3.00;2.80;;;14.40;99.90;;;;;;5036075;28;20418;-64
2022/03/26 11:10:55;;;;;;;2.90;2.73;;;14.20;99.90;;;;;;5036273;28;20403;-64
2022/03/26 11:13:24;;;;;;;3.20;3.00;;;14.60;99.90;;;;;;5036102;28;21114;-64
2022/03/26 11:15:57;;;;;;;3.17;2.87;;;14.90;99.90;;;;;;5035534;28;20380;-67
2022/03/26 11:18:43;;;;;;;3.30;3.00;;;15.10;99.90;;;;;;5036042;28;20428;-64
2022/03/26 11:21:24;;;;;;;3.27;2.93;;;15.10;99.90;;;;;;5035770;28;20384;-69
2022/03/26 11:24:24;;;;;;;2.53;2.30;;;15.80;99.90;;;;;;5035893;28;20398;-67
2022/03/26 11:27:16;;;;;;;3.63;2.50;;;16.50;99.90;;;;;;5039357;28;20513;-68
2022/03/26 11:29:51;;;;;;;2.70;2.50;;;17.30;99.90;;;;;;5035072;28;20402;-68
2022/03/26 11:32:20;;;;;;;2.80;2.60;;;17.20;99.90;;;;;;5035711;28;20814;-66
2022/03/26 11:34:49;;;;;;;2.57;2.37;;;17.00;99.90;;;;;;5035752;28;20434;-67
2022/03/26 11:37:22;;;;;;;2.73;2.60;;;17.10;99.90;;;;;;5035576;28;20438;-64
2022/03/26 11:39:49;;;;;;;2.30;2.20;;;17.70;99.90;;;;;;5035007;28;20431;-64
2022/03/26 11:42:23;;;;;;;2.67;2.47;;;18.10;99.90;;;;;;5035639;28;20441;-64
2022/03/26 11:50:46;;;;;;;2.70;2.50;;;16.90;99.90;;;;;;5034752;28;20440;-68
2022/03/26 11:53:31;;;;;;;2.37;2.17;;;16.40;99.90;;;;;;5035202;28;20434;-64
2022/03/26 11:55:57;;;;;;;2.03;1.80;;;16.50;99.90;;;;;;5035248;28;20399;-68
2022/03/26 11:58:27;;;;;;;2.17;1.97;;;16.30;99.90;;;;;;5035085;28;20519;-69
2022/03/26 12:01:00;;;;;;;2.43;2.23;;;16.10;99.90;;;;;;5034925;28;20159;-64
2022/03/26 12:03:28;;;;;;;2.47;2.33;;;15.80;99.90;;;;;;5035087;28;20402;-65
2022/03/26 12:09:03;;;;;;;2.33;2.13;;;15.60;99.90;;;;;;5034776;28;20417;-64
2022/03/26 12:11:33;;;;;;;2.60;2.40;;;16.00;99.90;;;;;;5034903;28;20426;-65
2022/03/26 12:14:01;;;;;;;2.83;2.50;;;16.10;99.90;;;;;;5035008;28;20411;-64
2022/03/26 12:16:49;;;;;;;2.83;2.63;;;15.90;99.90;;;;;;5034935;28;20485;-63
2022/03/26 12:19:38;;;;;;;3.63;3.43;;;15.70;99.90;;;;;;5034346;28;20489;-64
2022/03/26 12:22:24;;;;;;;4.00;3.70;;;15.60;99.90;;;;;;5034746;28;20438;-64
2022/03/26 12:24:51;;;;;;;3.40;3.17;;;15.20;99.90;;;;;;5034845;28;20397;-64
2022/03/26 12:27:18;;;;;;;4.60;3.30;;;15.20;99.90;;;;;;5033864;28;20440;-64
2022/03/26 12:29:43;;;;;;;2.93;2.73;;;15.30;99.90;;;;;;5033940;28;20368;-67
2022/03/26 12:32:10;;;;;;;3.00;2.73;;;15.40;99.90;;;;;;5034469;28;20429;-64
2022/03/26 12:35:01;;;;;;;3.33;3.03;;;15.30;99.90;;;;;;5034718;28;20218;-64
2022/03/26 12:37:28;;;;;;;3.10;2.90;;;15.20;99.90;;;;;;5034517;28;20446;-67
2022/03/26 12:39:55;;;;;;;3.80;3.50;;;15.20;99.90;;;;;;5033793;28;20404;-67
2022/03/26 12:42:23;;;;;;;3.17;2.87;;;15.10;99.90;;;;;;5034329;28;20527;-68
2022/03/26 12:44:49;;;;;;;3.47;2.30;;;15.10;99.90;;;;;;5034485;28;20402;-68
2022/03/26 12:47:24;;;;;;;4.10;3.70;;;15.00;99.90;;;;;;5034309;28;20434;-64
2022/03/26 12:49:51;;;;;;;2.60;2.40;;;15.20;99.90;;;;;;5033602;28;20416;-64
2022/03/26 12:52:18;;;;;;;2.93;1.70;;;15.80;99.90;;;;;;5034058;28;20945;-69
2022/03/26 12:54:51;;;;;;;2.20;2.00;;;17.20;99.90;;;;;;5034255;28;20451;-63